createdAt,value
2022-09-26T00:01:43.214Z,11.11
2022-09-26T00:04:23.704Z,11.06
2022-09-26T00:06:56.124Z,11.01
2022-09-26T00:09:27.212Z,10.95
2022-09-26T00:11:55.765Z,10.86
2022-09-26T00:14:28.937Z,10.79
2022-09-26T00:16:58.022Z,10.73
2022-09-26T00:19:26.548Z,10.67
2022-09-26T00:21:55.573Z,10.62
2022-09-26T00:24:24.300Z,10.61
2022-09-26T00:26:52.718Z,10.59
2022-09-26T00:29:21.036Z,10.58
2022-09-26T00:31:49.457Z,10.58
2022-09-26T00:34:19.855Z,10.59
2022-09-26T00:36:50.114Z,10.58
2022-09-26T00:39:18.743Z,10.55
2022-09-26T00:41:47.369Z,10.53
2022-09-26T00:44:54.789Z,10.49
2022-09-26T00:47:45.001Z,10.41
2022-09-26T00:50:26.789Z,10.38
2022-09-26T00:53:05.041Z,10.44
2022-09-26T00:55:39.079Z,10.54
2022-09-26T00:58:14.931Z,10.59
2022-09-26T01:00:47.394Z,10.63
2022-09-26T01:03:17.395Z,10.65
2022-09-26T01:05:47.140Z,10.66
2022-09-26T01:08:22.125Z,10.61
2022-09-26T01:10:50.681Z,10.63
2022-09-26T01:13:21.114Z,10.50
2022-09-26T01:15:49.637Z,10.36
2022-09-26T01:18:18.962Z,10.29
2022-09-26T01:22:03.145Z,10.24
2022-09-26T01:25:01.171Z,10.19
2022-09-26T01:27:55.887Z,10.15
2022-09-26T01:30:27.010Z,10.06
2022-09-26T01:33:03.373Z,9.97
2022-09-26T01:36:28.894Z,9.91
2022-09-26T01:39:41.750Z,9.85
2022-09-26T01:42:47.217Z,9.83
2022-09-26T01:45:27.480Z,9.82
2022-09-26T01:48:11.257Z,9.81
2022-09-26T01:51:33.591Z,9.80
2022-09-26T01:54:14.218Z,9.76
2022-09-26T01:56:44.460Z,9.72
2022-09-26T01:59:30.634Z,9.71
2022-09-26T02:02:10.034Z,9.68
2022-09-26T02:04:44.749Z,9.68
2022-09-26T02:07:19.391Z,9.67
2022-09-26T02:09:58.447Z,9.67
2022-09-26T02:12:36.833Z,9.64
2022-09-26T02:15:11.832Z,9.58
2022-09-26T02:17:46.894Z,9.55
2022-09-26T02:20:23.846Z,9.51
2022-09-26T02:22:52.868Z,9.50
2022-09-26T02:25:21.388Z,9.51
2022-09-26T02:27:50.513Z,9.54
2022-09-26T02:30:19.139Z,9.56
2022-09-26T02:32:48.965Z,9.54
2022-09-26T02:35:36.542Z,9.49
2022-09-26T02:38:06.891Z,9.41
2022-09-26T02:41:02.398Z,9.39
2022-09-26T02:44:38.052Z,9.38
2022-09-26T02:47:33.873Z,9.40
2022-09-26T02:50:38.120Z,9.45
2022-09-26T02:53:21.791Z,9.47
2022-09-26T02:56:28.762Z,9.48
2022-09-26T02:59:03.079Z,9.49
2022-09-26T03:02:09.960Z,9.51
2022-09-26T03:04:52.396Z,9.52
2022-09-26T03:07:37.565Z,9.50
2022-09-26T03:10:09.429Z,9.48
2022-09-26T03:12:40.007Z,9.47
2022-09-26T03:15:12.302Z,9.46
2022-09-26T03:17:50.452Z,9.45
2022-09-26T03:20:21.852Z,9.42
2022-09-26T03:22:51.853Z,9.42
2022-09-26T03:25:27.653Z,9.40
2022-09-26T03:28:07.228Z,9.38
2022-09-26T03:30:35.853Z,9.37
2022-09-26T03:33:49.427Z,9.37
2022-09-26T03:36:18.603Z,9.36
2022-09-26T03:38:47.165Z,9.36
2022-09-26T03:41:59.339Z,9.35
2022-09-26T03:44:30.376Z,9.33
2022-09-26T03:47:07.826Z,9.40
2022-09-26T03:49:40.676Z,9.53
2022-09-26T03:52:12.069Z,9.50
2022-09-26T03:54:41.017Z,9.42
2022-09-26T03:57:12.897Z,9.36
2022-09-26T03:59:46.357Z,9.29
2022-09-26T04:02:16.848Z,9.26
2022-09-26T04:04:45.845Z,9.24
2022-09-26T04:07:16.277Z,9.23
2022-09-26T04:09:44.637Z,9.25
2022-09-26T04:12:13.258Z,9.27
2022-09-26T04:14:43.743Z,9.29
2022-09-26T04:17:13.001Z,9.30
2022-09-26T04:19:44.505Z,9.32
2022-09-26T04:22:13.119Z,9.32
2022-09-26T04:24:41.953Z,9.28
2022-09-26T04:27:10.567Z,9.23
2022-09-26T04:29:39.186Z,9.14
2022-09-26T04:32:13.407Z,9.21
2022-09-26T04:34:52.290Z,9.19
2022-09-26T04:37:21.512Z,9.16
2022-09-26T04:39:50.036Z,9.17
2022-09-26T04:42:18.715Z,9.21
2022-09-26T04:44:48.392Z,9.27
2022-09-26T04:47:18.015Z,9.35
2022-09-26T04:50:06.592Z,9.42
2022-09-26T04:52:35.124Z,9.50
2022-09-26T04:55:04.143Z,9.60
2022-09-26T04:57:32.967Z,9.72
2022-09-26T05:00:02.159Z,9.85
2022-09-26T05:02:31.377Z,9.98
2022-09-26T05:05:00.445Z,10.03
2022-09-26T05:07:29.662Z,10.06
2022-09-26T05:09:58.091Z,10.13
2022-09-26T05:12:28.525Z,10.21
2022-09-26T05:14:56.922Z,10.32
2022-09-26T05:17:25.461Z,10.47
2022-09-26T05:19:53.972Z,10.63
2022-09-26T05:22:32.175Z,10.82
2022-09-26T05:25:19.124Z,11.02
2022-09-26T05:27:49.247Z,11.25
2022-09-26T05:30:17.674Z,11.46
2022-09-26T05:32:48.704Z,11.65
2022-09-26T05:35:17.923Z,11.80
2022-09-26T05:37:46.444Z,11.92
2022-09-26T05:40:33.680Z,12.03
2022-09-26T05:43:03.770Z,12.17
2022-09-26T05:45:32.989Z,12.30
2022-09-26T05:48:03.317Z,12.43
2022-09-26T05:50:33.444Z,12.55
2022-09-26T05:53:02.970Z,12.67
2022-09-26T05:55:32.270Z,12.81
2022-09-26T05:58:56.413Z,13.05
2022-09-26T06:01:43.422Z,13.24
2022-09-26T06:04:18.241Z,13.43
2022-09-26T06:07:03.421Z,13.58
2022-09-26T06:09:31.945Z,13.68
2022-09-26T06:12:19.834Z,13.77
2022-09-26T06:14:48.508Z,13.82
2022-09-26T06:17:16.872Z,13.89
2022-09-26T06:19:45.503Z,14.03
2022-09-26T06:22:14.017Z,14.22
2022-09-26T06:24:42.538Z,14.42
2022-09-26T06:27:13.368Z,14.62
2022-09-26T06:29:41.789Z,14.81
2022-09-26T06:32:10.384Z,14.99
2022-09-26T06:35:14.170Z,15.21
2022-09-26T06:37:46.691Z,15.37
2022-09-26T06:40:15.743Z,15.51
2022-09-26T06:42:45.521Z,15.67
2022-09-26T06:45:28.423Z,15.85
2022-09-26T06:48:12.198Z,16.03
2022-09-26T06:51:04.434Z,16.23
2022-09-26T06:53:35.203Z,16.35
2022-09-26T06:56:04.634Z,16.43
2022-09-26T06:58:34.343Z,16.52
2022-09-26T07:01:06.899Z,16.59
2022-09-26T07:03:54.462Z,16.66
2022-09-26T07:06:42.849Z,16.78
2022-09-26T07:09:12.424Z,16.93
2022-09-26T07:12:13.957Z,17.05
2022-09-26T07:14:38.565Z,17.16
2022-09-26T07:17:19.732Z,17.25
2022-09-26T07:20:12.239Z,17.38
2022-09-26T07:23:06.754Z,17.47
2022-09-26T07:25:39.703Z,17.58
2022-09-26T07:28:09.900Z,17.74
2022-09-26T07:30:57.274Z,17.91
2022-09-26T07:33:40.409Z,18.08
2022-09-26T07:36:11.631Z,18.25
2022-09-26T07:38:40.443Z,18.34
2022-09-26T07:41:11.466Z,18.37
2022-09-26T07:44:34.726Z,18.40
2022-09-26T07:46:50.386Z,18.51
2022-09-26T07:49:37.361Z,18.62
2022-09-26T07:53:04.813Z,18.74
2022-09-26T07:55:33.188Z,18.82
2022-09-26T07:58:19.973Z,18.91
2022-09-26T08:01:38.376Z,19.07
2022-09-26T08:04:25.714Z,19.23
2022-09-26T08:06:56.576Z,19.38
2022-09-26T08:09:25.447Z,19.51
2022-09-26T08:12:50.120Z,19.68
2022-09-26T08:15:42.479Z,19.79
2022-09-26T08:18:16.377Z,19.91
2022-09-26T08:20:48.204Z,19.97
2022-09-26T08:23:18.050Z,20.09
2022-09-26T08:25:53.505Z,20.21
2022-09-26T08:29:12.696Z,20.37
2022-09-26T08:31:42.179Z,20.49
2022-09-26T08:34:10.799Z,20.62
2022-09-26T08:36:39.400Z,20.71
2022-09-26T08:39:11.289Z,20.82
2022-09-26T08:42:10.121Z,20.97
2022-09-26T08:44:54.639Z,21.05
2022-09-26T08:47:55.381Z,21.10
2022-09-26T08:51:35.539Z,21.22
2022-09-26T08:54:34.568Z,21.39
2022-09-26T08:57:28.242Z,21.34
2022-09-26T08:59:56.900Z,21.33
2022-09-26T09:02:42.116Z,21.42
2022-09-26T09:05:27.228Z,21.54
2022-09-26T09:07:58.968Z,21.56
2022-09-26T09:10:52.170Z,21.59
2022-09-26T09:14:00.521Z,21.65
2022-09-26T09:17:46.690Z,21.79
2022-09-26T09:20:53.383Z,21.93
2022-09-26T09:24:19.703Z,21.99
2022-09-26T09:30:17.487Z,22.21
2022-09-26T09:33:08.807Z,22.31
2022-09-26T09:36:09.181Z,22.47
2022-09-26T09:38:48.981Z,22.65
2022-09-26T09:41:47.736Z,22.69
2022-09-26T09:44:49.112Z,22.82
2022-09-26T09:47:19.609Z,23.02
2022-09-26T09:49:50.370Z,23.13
2022-09-26T09:52:49.441Z,23.10
2022-09-26T09:56:00.165Z,23.14
2022-09-26T09:59:03.812Z,23.21
2022-09-26T10:01:44.845Z,23.28
2022-09-26T10:04:44.145Z,23.30
2022-09-26T10:07:13.303Z,23.31
2022-09-26T10:09:44.207Z,23.32
2022-09-26T10:12:35.196Z,23.36
2022-09-26T10:15:27.611Z,23.44
2022-09-26T10:18:59.535Z,23.55
2022-09-26T10:21:48.878Z,23.56
2022-09-26T10:24:41.047Z,23.58
2022-09-26T10:27:38.802Z,23.67
2022-09-26T10:30:33.196Z,23.68
2022-09-26T10:33:05.773Z,23.86
2022-09-26T10:35:46.533Z,24.10
2022-09-26T10:38:23.808Z,24.36
2022-09-26T10:41:03.573Z,24.58
2022-09-26T10:43:38.114Z,24.85
2022-09-26T10:46:20.894Z,25.02
2022-09-26T10:49:14.059Z,25.13
2022-09-26T10:52:45.906Z,25.35
2022-09-26T10:55:29.866Z,25.75
2022-09-26T10:58:10.082Z,26.02
2022-09-26T11:00:50.523Z,26.22
2022-09-26T11:03:34.672Z,26.37
2022-09-26T11:06:45.211Z,26.52
2022-09-26T11:09:31.155Z,26.69
2022-09-26T11:12:29.676Z,26.87
2022-09-26T11:15:10.989Z,27.08
2022-09-26T11:17:51.502Z,27.27
2022-09-26T11:20:52.174Z,27.53
2022-09-26T11:23:46.288Z,27.78
2022-09-26T11:26:28.542Z,27.90
2022-09-26T11:29:27.921Z,27.81
2022-09-26T11:32:33.931Z,27.78
2022-09-26T11:35:22.225Z,27.89
2022-09-26T11:38:18.893Z,27.83
2022-09-26T11:41:07.340Z,27.88
2022-09-26T11:43:46.641Z,27.81
2022-09-26T11:46:40.111Z,27.86
2022-09-26T11:49:36.118Z,28.04
2022-09-26T11:53:10.327Z,28.36
2022-09-26T11:55:56.819Z,28.65
2022-09-26T11:58:36.837Z,28.92
2022-09-26T12:01:05.203Z,29.15
2022-09-26T12:03:43.658Z,29.25
2022-09-26T12:06:33.714Z,28.85
2022-09-26T12:09:10.345Z,28.37
2022-09-26T12:12:00.253Z,28.09
2022-09-26T12:14:40.265Z,27.75
2022-09-26T12:17:36.364Z,27.46
2022-09-26T12:20:57.018Z,27.10
2022-09-26T12:24:12.177Z,26.78
2022-09-26T12:27:07.629Z,26.52
2022-09-26T12:30:25.276Z,26.26
2022-09-26T12:33:21.027Z,25.93
2022-09-26T12:36:19.042Z,25.71
2022-09-26T12:39:24.920Z,25.47
2022-09-26T12:42:28.363Z,25.26
2022-09-26T12:45:45.224Z,25.12
2022-09-26T12:48:57.309Z,24.99
2022-09-26T12:51:52.347Z,24.80
2022-09-26T12:54:44.737Z,24.61
2022-09-26T12:57:43.949Z,24.55
2022-09-26T13:00:18.618Z,24.52
2022-09-26T13:03:35.578Z,24.50
2022-09-26T13:06:12.998Z,24.47
2022-09-26T13:09:16.065Z,24.43
2022-09-26T13:12:01.951Z,24.31
2022-09-26T13:15:32.643Z,24.32
2022-09-26T13:18:22.994Z,24.27
2022-09-26T13:21:00.358Z,24.22
2022-09-26T13:23:36.234Z,24.22
2022-09-26T13:26:26.193Z,24.24
2022-09-26T13:29:24.518Z,24.23
2022-09-26T13:32:06.831Z,24.19
2022-09-26T13:34:42.574Z,24.14
2022-09-26T13:37:36.564Z,24.07
2022-09-26T13:40:40.900Z,24.01
2022-09-26T13:43:36.519Z,24.01
2022-09-26T13:46:30.378Z,23.97
2022-09-26T13:49:07.741Z,23.87
2022-09-26T13:51:54.686Z,23.88
2022-09-26T13:54:57.562Z,23.82
2022-09-26T13:57:35.305Z,23.77
2022-09-26T14:00:23.521Z,23.74
2022-09-26T14:03:19.250Z,23.70
2022-09-26T14:05:51.775Z,23.67
2022-09-26T14:08:44.430Z,23.58
2022-09-26T14:11:19.146Z,23.58
2022-09-26T14:13:48.734Z,23.49
2022-09-26T14:16:34.362Z,23.42
2022-09-26T14:19:28.960Z,23.33
2022-09-26T14:22:23.660Z,23.25
2022-09-26T14:24:54.452Z,23.17
2022-09-26T14:27:39.484Z,23.09
2022-09-26T14:30:13.978Z,23.02
2022-09-26T14:32:47.032Z,22.93
2022-09-26T14:35:19.748Z,22.85
2022-09-26T14:37:51.351Z,22.76
2022-09-26T14:40:30.485Z,22.67
2022-09-26T14:43:14.425Z,22.60
2022-09-26T14:45:49.024Z,22.52
2022-09-26T14:48:32.439Z,22.43
2022-09-26T14:51:12.687Z,22.34
2022-09-26T14:54:27.393Z,22.23
2022-09-26T14:57:08.055Z,22.09
2022-09-26T14:59:36.401Z,21.99
2022-09-26T15:02:14.709Z,21.90
2022-09-26T15:04:47.352Z,21.76
2022-09-26T15:07:24.279Z,21.64
2022-09-26T15:10:13.834Z,21.53
2022-09-26T15:12:52.577Z,21.40
2022-09-26T15:15:55.029Z,21.30
2022-09-26T15:18:36.105Z,21.16
2022-09-26T15:21:27.116Z,21.07
2022-09-26T15:23:57.830Z,20.97
2022-09-26T15:26:37.161Z,20.88
2022-09-26T15:29:09.072Z,20.80
2022-09-26T15:31:47.456Z,20.72
2022-09-26T15:34:39.943Z,20.64
2022-09-26T15:37:32.364Z,20.54
2022-09-26T15:40:24.401Z,20.45
2022-09-26T15:43:22.531Z,20.37
2022-09-26T15:45:59.921Z,20.32
2022-09-26T15:48:32.613Z,20.24
2022-09-26T15:51:19.730Z,20.18
2022-09-26T15:54:22.961Z,20.11
2022-09-26T15:56:52.418Z,20.04
2022-09-26T15:59:30.400Z,19.96
2022-09-26T16:02:00.776Z,19.89
2022-09-26T16:04:32.955Z,19.81
2022-09-26T16:07:15.532Z,19.73
2022-09-26T16:09:47.059Z,19.64
2022-09-26T16:12:15.634Z,19.56
2022-09-26T16:15:18.832Z,19.50
2022-09-26T16:17:54.229Z,19.44
2022-09-26T16:20:27.415Z,19.36
2022-09-26T16:23:04.681Z,19.26
2022-09-26T16:25:40.610Z,19.19
2022-09-26T16:28:10.193Z,19.14
2022-09-26T16:31:10.668Z,19.11
2022-09-26T16:33:41.307Z,19.10
2022-09-26T16:36:22.338Z,19.09
2022-09-26T16:39:03.631Z,19.07
2022-09-26T16:42:03.377Z,19.04
2022-09-26T16:44:42.828Z,18.92
2022-09-26T16:47:50.482Z,18.86
2022-09-26T16:50:31.362Z,18.80
2022-09-26T16:53:06.886Z,18.76
2022-09-26T16:55:37.562Z,18.70
2022-09-26T16:58:06.450Z,18.65
2022-09-26T17:00:54.242Z,18.62
2022-09-26T17:03:30.765Z,18.54
2022-09-26T17:06:00.963Z,18.44
2022-09-26T17:08:29.835Z,18.34
2022-09-26T17:11:03.321Z,18.27
2022-09-26T17:13:35.615Z,18.26
2022-09-26T17:16:04.294Z,18.28
2022-09-26T17:18:35.165Z,18.30
2022-09-26T17:21:03.984Z,18.32
2022-09-26T17:23:41.393Z,18.33
2022-09-26T17:26:22.337Z,18.28
2022-09-26T17:28:53.414Z,18.23
2022-09-26T17:31:22.080Z,18.18
2022-09-26T17:33:53.400Z,18.11
2022-09-26T17:36:27.395Z,18.02
2022-09-26T17:38:59.613Z,17.94
2022-09-26T17:41:31.498Z,17.86
2022-09-26T17:44:01.261Z,17.79
2022-09-26T17:46:30.518Z,17.74
2022-09-26T17:48:59.513Z,17.70
2022-09-26T17:51:29.409Z,17.69
2022-09-26T17:53:57.886Z,17.68
2022-09-26T17:56:26.653Z,17.68
2022-09-26T17:58:57.282Z,17.71
2022-09-26T18:01:35.070Z,17.75
2022-09-26T18:04:07.707Z,17.71
2022-09-26T18:06:37.090Z,17.79
2022-09-26T18:09:10.159Z,17.80
2022-09-26T18:11:41.862Z,17.83
2022-09-26T18:14:17.947Z,17.86
2022-09-26T18:16:46.840Z,17.88
2022-09-26T18:19:15.694Z,17.90
2022-09-26T18:21:44.415Z,17.93
2022-09-26T18:24:19.781Z,17.96
2022-09-26T18:26:50.949Z,17.97
2022-09-26T18:29:35.541Z,18.00
2022-09-26T18:32:12.180Z,18.01
2022-09-26T18:34:40.707Z,17.99
2022-09-26T18:37:09.224Z,17.96
2022-09-26T18:39:37.752Z,17.92
2022-09-26T18:42:12.026Z,17.90
2022-09-26T18:44:40.916Z,17.89
2022-09-26T18:47:16.725Z,17.89
2022-09-26T18:49:46.764Z,17.90
2022-09-26T18:52:18.064Z,17.91
2022-09-26T18:55:07.013Z,17.92
2022-09-26T18:57:54.297Z,17.92
2022-09-26T19:00:22.824Z,17.90
2022-09-26T19:02:51.501Z,17.83
2022-09-26T19:05:20.679Z,17.86
2022-09-26T19:07:49.592Z,17.86
2022-09-26T19:10:22.476Z,17.85
2022-09-26T19:12:51.061Z,17.85
2022-09-26T19:15:19.668Z,17.86
2022-09-26T19:17:50.073Z,17.86
2022-09-26T19:20:18.528Z,17.84
2022-09-26T19:22:47.446Z,17.80
2022-09-26T19:25:16.036Z,17.76
2022-09-26T19:27:54.420Z,17.71
2022-09-26T19:30:23.454Z,17.66
2022-09-26T19:32:56.107Z,17.61
2022-09-26T19:35:25.107Z,17.56
2022-09-26T19:37:54.227Z,17.55
2022-09-26T19:40:24.885Z,17.55
2022-09-26T19:42:53.585Z,17.56
2022-09-26T19:45:22.305Z,17.58
2022-09-26T19:47:54.509Z,17.57
2022-09-26T19:50:27.067Z,17.59
2022-09-26T19:52:58.763Z,17.63
2022-09-26T19:55:29.706Z,17.67
2022-09-26T19:58:19.139Z,17.67
2022-09-26T20:00:54.846Z,17.67
2022-09-26T20:03:31.544Z,17.67
2022-09-26T20:06:00.054Z,17.67
2022-09-26T20:08:28.571Z,17.67
2022-09-26T20:10:59.307Z,17.67
2022-09-26T20:13:27.929Z,17.66
2022-09-26T20:15:57.049Z,17.62
2022-09-26T20:18:25.778Z,17.57
2022-09-26T20:20:56.902Z,17.51
2022-09-26T20:23:27.334Z,17.46
2022-09-26T20:25:56.765Z,17.45
2022-09-26T20:28:25.262Z,17.43
2022-09-26T20:30:55.509Z,17.37
2022-09-26T20:33:27.012Z,17.32
2022-09-26T20:36:04.620Z,17.26
2022-09-26T20:38:51.180Z,17.21
2022-09-26T20:41:28.934Z,17.14
2022-09-26T20:44:02.298Z,17.09
2022-09-26T20:46:36.134Z,17.06
2022-09-26T20:49:12.929Z,17.01
2022-09-26T20:51:41.888Z,16.94
2022-09-26T20:54:33.448Z,16.89
2022-09-26T20:57:01.911Z,16.84
2022-09-26T20:59:30.532Z,16.82
2022-09-26T21:02:00.264Z,16.81
2022-09-26T21:04:32.991Z,16.82
2022-09-26T21:07:01.439Z,16.84
2022-09-26T21:09:29.936Z,16.87
2022-09-26T21:11:58.457Z,16.90
2022-09-26T21:14:26.978Z,16.91
2022-09-26T21:16:55.679Z,16.91
2022-09-26T21:19:25.326Z,16.91
2022-09-26T21:22:02.857Z,16.88
2022-09-26T21:25:05.927Z,16.87
2022-09-26T21:27:34.750Z,16.89
2022-09-26T21:30:03.669Z,16.92
2022-09-26T21:32:33.013Z,16.96
2022-09-26T21:35:05.216Z,16.99
2022-09-26T21:37:34.655Z,17.00
2022-09-26T21:40:03.491Z,16.97
2022-09-26T21:42:32.501Z,16.93
2022-09-26T21:45:06.095Z,16.87
2022-09-26T21:47:36.873Z,16.80
2022-09-26T21:50:08.481Z,16.73
2022-09-26T21:52:46.171Z,16.66
2022-09-26T21:55:30.006Z,16.56
2022-09-26T21:58:05.377Z,16.45
2022-09-26T22:00:33.901Z,16.38
2022-09-26T22:03:02.423Z,16.27
2022-09-26T22:05:31.550Z,16.21
2022-09-26T22:08:00.371Z,16.18
2022-09-26T22:10:29.493Z,16.15
2022-09-26T22:12:58.621Z,16.14
2022-09-26T22:15:27.139Z,16.13
2022-09-26T22:17:55.863Z,16.12
2022-09-26T22:20:24.584Z,16.12
2022-09-26T22:22:53.202Z,16.13
2022-09-26T22:25:21.725Z,16.12
2022-09-26T22:27:50.248Z,16.12
2022-09-26T22:30:18.771Z,16.14
2022-09-26T22:32:47.293Z,16.17
2022-09-26T22:35:15.917Z,16.18
2022-09-26T22:37:44.488Z,16.21
2022-09-26T22:40:13.110Z,16.22
2022-09-26T22:42:41.678Z,16.21
2022-09-26T22:45:11.164Z,16.21
2022-09-26T22:47:39.630Z,16.20
2022-09-26T22:50:08.862Z,16.20
2022-09-26T22:52:37.576Z,16.19
2022-09-26T22:55:07.979Z,16.17
2022-09-26T22:57:36.533Z,16.14
2022-09-26T23:00:06.259Z,16.11
2022-09-26T23:02:35.413Z,16.08
2022-09-26T23:05:04.602Z,16.02
2022-09-26T23:07:33.318Z,15.99
2022-09-26T23:10:02.045Z,15.97
2022-09-26T23:12:32.463Z,15.97
2022-09-26T23:15:00.892Z,16.03
2022-09-26T23:17:29.417Z,16.10
2022-09-26T23:19:57.833Z,16.16
2022-09-26T23:22:26.359Z,16.20
2022-09-26T23:24:55.480Z,16.22
2022-09-26T23:27:25.304Z,16.22
2022-09-26T23:29:55.541Z,16.20
2022-09-26T23:32:24.256Z,16.20
2022-09-26T23:34:52.957Z,16.19
2022-09-26T23:37:21.512Z,16.18
2022-09-26T23:39:50.524Z,16.16
2022-09-26T23:42:19.010Z,16.14
2022-09-26T23:44:47.571Z,16.13
2022-09-26T23:47:16.088Z,16.11
2022-09-26T23:49:44.514Z,16.07
2022-09-26T23:52:13.233Z,16.05
2022-09-26T23:54:42.565Z,16.05
2022-09-26T23:57:11.184Z,16.01
2022-09-26T23:59:39.806Z,15.95
